| time (UTC) | temp F | wind direction | speed MPH | gust MPH | rain 1hr in | rain 24hr in | rain mn in | humidity % | barometer mb |
| 20260906011004 | 80 | 116 | 0.0 | 1.0 | 0.00 | 0.00 | 0.00 | 67 | 1007.3 |
| 20260906005004 | 80 | 151 | 0.0 | 3.0 | 0.00 | 0.00 | 0.00 | 68 | 1007.5 |
| 20260906004004 | 81 | 112 | 2.0 | 3.0 | 0.00 | 0.00 | 0.00 | 66 | 1007.5 |
| 20260906003004 | 81 | 146 | 0.0 | 2.0 | 0.00 | 0.00 | 0.00 | 64 | 1007.5 |
| 20260906001004 | 82 | 104 | 1.0 | 2.0 | 0.00 | 0.00 | 0.00 | 64 | 1007.5 |
| 20260906000003 | 83 | 104 | 1.0 | 2.0 | 0.00 | 0.00 | 0.00 | 63 | 1007.7 |
| 20260905235004 | 84 | 104 | 1.0 | 2.0 | 0.00 | 0.00 | 0.00 | 61 | 1007.8 |
| 20260905234004 | 85 | 160 | 1.0 | 3.0 | 0.00 | 0.00 | 0.00 | 58 | 1007.9 |
| 20260905233004 | 87 | 72 | 1.0 | 3.0 | 0.00 | 0.00 | 0.00 | 57 | 1007.8 |
| 20260905232004 | 89 | 355 | 1.0 | 9.0 | 0.00 | 0.00 | 0.00 | 57 | 1007.7 |
| 20260905225004 | 92 | 33 | 2.0 | 3.0 | 0.00 | 0.00 | 0.00 | 51 | 1007.5 |
| 20260905224004 | 92 | 0 | 0.0 | 3.0 | 0.00 | 0.00 | 0.00 | 51 | 1007.5 |
| 20260905223004 | 92 | 55 | 1.0 | 3.0 | 0.00 | 0.00 | 0.00 | 52 | 1007.4 |
| 20260905222004 | 92 | 221 | 2.0 | 7.0 | 0.00 | 0.00 | 0.00 | 51 | 1007.4 |
| 20260905221004 | 93 | 311 | 1.0 | 3.0 | 0.00 | 0.00 | 0.00 | 49 | 1007.5 |
| 20260905220004 | 93 | 328 | 1.0 | 3.0 | 0.00 | 0.00 | 0.00 | 47 | 1007.4 |
| 20260905215004 | 93 | 270 | 2.0 | 3.0 | 0.00 | 0.00 | 0.00 | 47 | 1007.4 |
| 20260905213003 | 94 | 344 | 3.0 | 6.0 | 0.00 | 0.00 | 0.00 | 45 | 1007.3 |
| 20260905211004 | 95 | 255 | 2.0 | 7.0 | 0.00 | 0.00 | 0.00 | 45 | 1007.5 |
| 20260905210003 | 94 | 287 | 2.0 | 6.0 | 0.00 | 0.00 | 0.00 | 46 | 1007.5 |
| 20260905204004 | 95 | 14 | 2.0 | 3.0 | 0.00 | 0.00 | 0.00 | 48 | 1007.6 |
| 20260905203004 | 93 | 182 | 1.0 | 3.0 | 0.00 | 0.00 | 0.00 | 52 | 1007.8 |
| 20260905202004 | 92 | 14 | 3.0 | 6.0 | 0.00 | 0.00 | 0.00 | 52 | 1007.9 |
| 20260905201003 | 93 | 17 | 3.0 | 12.0 | 0.00 | 0.00 | 0.00 | 52 | 1008.0 |
| 20260905195004 | 93 | 235 | 1.0 | 3.0 | 0.00 | 0.00 | 0.00 | 54 | 1008.4 |
| 20260905194004 | 92 | 207 | 1.0 | 3.0 | 0.00 | 0.00 | 0.00 | 53 | 1008.5 |
| 20260905193004 | 92 | 174 | 1.0 | 3.0 | 0.00 | 0.00 | 0.00 | 53 | 1008.6 |
| 20260905192004 | 93 | 128 | 1.0 | 3.0 | 0.00 | 0.00 | 0.00 | 51 | 1008.8 |
| 20260905191003 | 93 | 108 | 2.0 | 3.0 | 0.00 | 0.00 | 0.00 | 53 | 1008.8 |
| 20260905190003 | 93 | 86 | 1.0 | 3.0 | 0.00 | 0.00 | 0.00 | 55 | 1009.0 |
| 20260905185004 | 93 | 349 | 2.0 | 3.0 | 0.00 | 0.00 | 0.00 | 53 | 1009.1 |
| 20260905183003 | 93 | 68 | 2.0 | 3.0 | 0.00 | 0.00 | 0.00 | 54 | 1009.2 |
| 20260905182004 | 93 | 173 | 2.0 | 3.0 | 0.00 | 0.00 | 0.00 | 54 | 1009.5 |
| 20260905181004 | 93 | 43 | 1.0 | 3.0 | 0.00 | 0.00 | 0.00 | 52 | 1009.5 |
| 20260905180003 | 92 | 168 | 2.0 | 3.0 | 0.00 | 0.00 | 0.00 | 56 | 1009.6 |
| 20260905175003 | 91 | 345 | 2.0 | 3.0 | 0.00 | 0.00 | 0.00 | 57 | 1009.9 |
| 20260905174004 | 92 | 356 | 2.0 | 3.0 | 0.00 | 0.00 | 0.00 | 56 | 1010.1 |
| 20260905173004 | 92 | 118 | 2.0 | 5.0 | 0.00 | 0.00 | 0.00 | 54 | 1010.1 |
| 20260905172003 | 91 | 106 | 2.0 | 5.0 | 0.00 | 0.00 | 0.00 | 55 | 1010.1 |
| 20260905171004 | 90 | 42 | 1.0 | 3.0 | 0.00 | 0.00 | 0.00 | 60 | 1010.1 |
| 20260905170004 | 90 | 21 | 2.0 | 3.0 | 0.00 | 0.00 | 0.00 | 60 | 1010.1 |
| 20260905164003 | 89 | 20 | 2.0 | 3.0 | 0.00 | 0.00 | 0.00 | 60 | 1010.1 |
| 20260905162003 | 87 | 216 | 2.0 | 3.0 | 0.00 | 0.00 | 0.00 | 65 | 1010.5 |
| 20260905161003 | 87 | 3 | 2.0 | 3.0 | 0.00 | 0.00 | 0.00 | 64 | 1010.6 |
| 20260905160004 | 86 | 62 | 2.0 | 5.0 | 0.00 | 0.00 | 0.00 | 64 | 1010.6 |
| 20260905155003 | 86 | 9 | 1.0 | 3.0 | 0.00 | 0.00 | 0.00 | 66 | 1010.6 |
| 20260905154004 | 86 | 17 | 1.0 | 6.0 | 0.00 | 0.00 | 0.00 | 65 | 1010.7 |
| 20260905151004 | 85 | 15 | 2.0 | 7.0 | 0.00 | 0.00 | 0.00 | 67 | 1011.0 |
| 20260905150005 | 85 | 33 | 1.0 | 5.0 | 0.00 | 0.00 | 0.00 | 70 | 1010.9 |
| 20260905145005 | 84 | 105 | 2.0 | 8.0 | 0.00 | 0.00 | 0.00 | 71 | 1010.9 |
| 20260905144005 | 83 | 358 | 3.0 | 8.0 | 0.00 | 0.00 | 0.00 | 77 | 1011.0 |
| 20260905143004 | 82 | 19 | 2.0 | 3.0 | 0.00 | 0.00 | 0.00 | 77 | 1010.6 |
| 20260905142004 | 81 | 307 | 1.0 | 3.0 | 0.00 | 0.00 | 0.00 | 80 | 1010.6 |
| 20260905141005 | 80 | 198 | 1.0 | 5.0 | 0.00 | 0.00 | 0.00 | 79 | 1010.6 |
| 20260905140005 | 80 | 240 | 2.0 | 5.0 | 0.00 | 0.00 | 0.00 | 82 | 1010.5 |
| 20260905135005 | 79 | 269 | 2.0 | 3.0 | 0.00 | 0.00 | 0.00 | 84 | 1010.6 |
| 20260905134005 | 79 | 233 | 2.0 | 3.0 | 0.00 | 0.00 | 0.00 | 87 | 1010.6 |
| 20260905133004 | 78 | 258 | 2.0 | 3.0 | 0.00 | 0.00 | 0.00 | 88 | 1010.6 |
| 20260905132004 | 78 | 249 | 1.0 | 2.0 | 0.00 | 0.00 | 0.00 | 90 | 1010.6 |
| 20260905131004 | 77 | 248 | 2.0 | 3.0 | 0.00 | 0.00 | 0.00 | 92 | 1010.6 |
| 20260905130005 | 77 | 247 | 2.0 | 3.0 | 0.00 | 0.00 | 0.00 | 95 | 1010.7 |
| 20260905125005 | 76 | 265 | 2.0 | 5.0 | 0.00 | 0.00 | 0.00 | 98 | 1010.7 |
| 20260905124005 | 75 | 273 | 1.0 | 2.0 | 0.00 | 0.00 | 0.00 | 100 | 1010.7 |
| 20260905123005 | 75 | 260 | 1.0 | 3.0 | 0.00 | 0.00 | 0.00 | 100 | 1010.7 |
| 20260905122005 | 74 | 243 | 2.0 | 2.0 | 0.00 | 0.00 | 0.00 | 100 | 1010.6 |
| 20260905121005 | 73 | 30 | 0.0 | 1.0 | 0.00 | 0.00 | 0.00 | 100 | 1010.6 |
| 20260905120004 | 73 | 30 | 1.0 | 1.0 | 0.00 | 0.00 | 0.00 | 100 | 1010.6 |
| 20260905115005 | 73 | 30 | 0.0 | 1.0 | 0.00 | 0.00 | 0.00 | 100 | 1010.5 |
| 20260905114005 | 73 | 30 | 0.0 | 1.0 | 0.00 | 0.00 | 0.00 | 100 | 1010.3 |
| 20260905113004 | 73 | 30 | 1.0 | 1.0 | 0.00 | 0.00 | 0.00 | 100 | 1010.1 |
| 20260905112005 | 73 | 30 | 0.0 | 1.0 | 0.00 | 0.00 | 0.00 | 100 | 1010.0 |
| 20260905111004 | 72 | 30 | 0.0 | 1.0 | 0.00 | 0.00 | 0.00 | 100 | 1010.1 |
| 20260905105004 | 73 | 30 | 0.0 | 1.0 | 0.00 | 0.00 | 0.00 | 100 | 1009.8 |
| 20260905104004 | 73 | 30 | 1.0 | 2.0 | 0.00 | 0.00 | 0.00 | 100 | 1009.8 |
| 20260905101004 | 72 | 30 | 0.0 | 2.0 | 0.00 | 0.00 | 0.00 | 100 | 1009.6 |
| 20260905100004 | 72 | 30 | 1.0 | 1.0 | 0.00 | 0.00 | 0.00 | 100 | 1009.4 |
| 20260905094004 | 72 | 30 | 0.0 | 1.0 | 0.00 | 0.00 | 0.00 | 100 | 1009.3 |
| 20260905093004 | 73 | 30 | 0.0 | 2.0 | 0.00 | 0.00 | 0.00 | 100 | 1009.3 |
| 20260905092004 | 73 | 30 | 1.0 | 2.0 | 0.00 | 0.00 | 0.00 | 100 | 1009.4 |
| 20260905091005 | 73 | 176 | 1.0 | 2.0 | 0.00 | 0.00 | 0.00 | 99 | 1009.3 |
| 20260905085005 | 73 | 176 | 0.0 | 2.0 | 0.00 | 0.00 | 0.00 | 99 | 1009.1 |
| 20260905084004 | 73 | 176 | 1.0 | 2.0 | 0.00 | 0.00 | 0.00 | 99 | 1009.1 |
| 20260905083004 | 73 | 176 | 0.0 | 1.0 | 0.00 | 0.00 | 0.00 | 99 | 1009.1 |
| 20260905082005 | 73 | 176 | 0.0 | 0.0 | 0.00 | 0.00 | 0.00 | 99 | 1009.1 |
| 20260905081004 | 73 | 176 | 0.0 | 2.0 | 0.00 | 0.00 | 0.00 | 98 | 1009.4 |
| 20260905080004 | 73 | 83 | 1.0 | 2.0 | 0.00 | 0.00 | 0.00 | 97 | 1009.4 |
| 20260905075004 | 73 | 79 | 1.0 | 2.0 | 0.00 | 0.00 | 0.00 | 97 | 1009.5 |
| 20260905073005 | 74 | 79 | 0.0 | 0.0 | 0.00 | 0.00 | 0.00 | 97 | 1009.6 |
| 20260905072005 | 74 | 79 | 0.0 | 1.0 | 0.00 | 0.00 | 0.00 | 97 | 1009.6 |
| 20260905071005 | 74 | 79 | 0.0 | 0.0 | 0.00 | 0.00 | 0.00 | 97 | 1009.7 |
| 20260905070004 | 74 | 79 | 0.0 | 1.0 | 0.00 | 0.00 | 0.00 | 96 | 1009.8 |
| 20260905065004 | 74 | 79 | 0.0 | 1.0 | 0.00 | 0.00 | 0.00 | 96 | 1010.0 |
| 20260905064004 | 74 | 79 | 0.0 | 0.0 | 0.00 | 0.00 | 0.00 | 96 | 1010.1 |
| 20260905063004 | 74 | 79 | 0.0 | 1.0 | 0.00 | 0.00 | 0.00 | 95 | 1010.2 |
| 20260905062004 | 75 | 79 | 1.0 | 2.0 | 0.00 | 0.00 | 0.00 | 95 | 1010.3 |
| 20260905061004 | 75 | 79 | 1.0 | 2.0 | 0.00 | 0.00 | 0.00 | 95 | 1010.3 |
| 20260905060004 | 75 | 79 | 0.0 | 1.0 | 0.00 | 0.00 | 0.00 | 94 | 1010.3 |
| 20260905055004 | 75 | 79 | 0.0 | 2.0 | 0.00 | 0.00 | 0.00 | 94 | 1010.5 |
| 20260905054004 | 75 | 79 | 1.0 | 1.0 | 0.00 | 0.00 | 0.00 | 94 | 1010.6 |
| 20260905053005 | 75 | 101 | 0.0 | 1.0 | 0.00 | 0.00 | 0.00 | 93 | 1010.6 |
| 20260905052005 | 76 | 101 | 0.0 | 1.0 | 0.00 | 0.00 | 0.00 | 93 | 1010.6 |
| 20260905051004 | 76 | 101 | 0.0 | 1.0 | 0.00 | 0.00 | 0.00 | 94 | 1010.5 |
| 20260905050004 | 76 | 101 | 0.0 | 2.0 | 0.00 | 0.00 | 0.00 | 94 | 1010.5 |
| 20260905045005 | 76 | 57 | 1.0 | 2.0 | 0.00 | 0.00 | 0.00 | 94 | 1010.5 |
| 20260905043004 | 76 | 57 | 0.0 | 2.0 | 0.00 | 0.00 | 0.00 | 94 | 1010.5 |
| 20260905042004 | 76 | 57 | 0.0 | 1.0 | 0.00 | 0.00 | 0.00 | 93 | 1010.4 |
| 20260905040004 | 76 | 57 | 0.0 | 2.0 | 0.00 | 0.00 | 0.00 | 92 | 1010.6 |
| 20260905035005 | 77 | 80 | 1.0 | 2.0 | 0.00 | 0.00 | 0.00 | 92 | 1010.5 |
| 20260905034004 | 76 | 34 | 0.0 | 1.0 | 0.00 | 0.00 | 0.00 | 91 | 1010.3 |
| 20260905033004 | 77 | 34 | 0.0 | 0.0 | 0.00 | 0.00 | 0.00 | 91 | 1010.5 |
| 20260905032004 | 77 | 34 | 0.0 | 1.0 | 0.00 | 0.00 | 0.00 | 90 | 1010.4 |
| 20260905031004 | 77 | 34 | 1.0 | 2.0 | 0.00 | 0.00 | 0.00 | 89 | 1010.6 |
| 20260905030004 | 77 | 34 | 0.0 | 1.0 | 0.00 | 0.00 | 0.00 | 87 | 1010.6 |
| 20260905025004 | 78 | 34 | 0.0 | 0.0 | 0.00 | 0.00 | 0.00 | 87 | 1010.5 |
| 20260905024004 | 78 | 34 | 0.0 | 1.0 | 0.00 | 0.00 | 0.00 | 86 | 1010.4 |
| 20260905023004 | 79 | 34 | 0.0 | 2.0 | 0.00 | 0.00 | 0.00 | 85 | 1010.5 |
| 20260905021004 | 79 | 260 | 2.0 | 3.0 | 0.00 | 0.00 | 0.00 | 79 | 1010.0 |
| 20260905020004 | 80 | 292 | 1.0 | 2.0 | 0.00 | 0.00 | 0.00 | 80 | 1010.0 |
| 20260905015004 | 79 | 355 | 0.0 | 1.0 | 0.00 | 0.00 | 0.00 | 80 | 1010.1 |
| 20260905014004 | 80 | 355 | 0.0 | 1.0 | 0.00 | 0.00 | 0.00 | 80 | 1010.1 |
| 20260905013004 | 80 | 355 | 0.0 | 1.0 | 0.00 | 0.00 | 0.00 | 80 | 1010.2 |